Time;durP1;ratioP1;P1;durP2;ratioP2;P2;SDS_P1;SDS_P2;PMS_P1;PMS_P2;Temp;Humidity;BMP_temperature;BMP_pressure;BME280_temperature;BME280_humidity;BME280_pressure;Samples;Min_cycle;Max_cycle;Signal;HPM_P1;HPM_P2
2023/09/12 00:02:00;;;;;;;5.70;2.90;;;;;;;18.33;100.00;100677.97;5052666;28;20951;-68
2023/09/12 00:04:27;;;;;;;8.00;3.30;;;;;;;18.33;100.00;100674.44;5054184;28;20525;-68
2023/09/12 00:06:53;;;;;;;5.63;3.67;;;;;;;18.33;100.00;100677.97;5053248;28;20481;-70
2023/09/12 00:09:20;;;;;;;7.13;4.03;;;;;;;18.30;100.00;100673.19;5053447;28;20887;-70
2023/09/12 00:11:46;;;;;;;4.43;2.37;;;;;;;18.29;100.00;100681.78;5053588;28;20442;-70
2023/09/12 00:14:16;;;;;;;6.63;3.63;;;;;;;18.29;100.00;100679.84;5053547;28;20556;-70
2023/09/12 00:16:44;;;;;;;11.90;3.57;;;;;;;18.24;100.00;100688.31;5053709;28;20516;-70
2023/09/12 00:19:11;;;;;;;5.67;2.90;;;;;;;18.23;100.00;100686.69;5053197;28;20525;-70
2023/09/12 00:21:37;;;;;;;6.87;2.93;;;;;;;18.22;100.00;100687.06;5053675;28;20519;-71
2023/09/12 00:24:04;;;;;;;6.30;2.70;;;;;;;18.21;100.00;100686.25;5053539;28;20446;-71
2023/09/12 00:26:31;;;;;;;6.23;3.50;;;;;;;18.21;100.00;100685.47;5053184;28;20462;-70
2023/09/12 00:28:58;;;;;;;4.90;2.60;;;;;;;18.18;100.00;100677.94;5052991;28;20953;-70
2023/09/12 00:31:24;;;;;;;6.93;3.00;;;;;;;18.17;100.00;100677.13;5053259;28;20536;-70
2023/09/12 00:33:52;;;;;;;5.43;3.27;;;;;;;18.15;100.00;100679.44;5053183;28;21059;-71
2023/09/12 00:36:19;;;;;;;8.03;3.20;;;;;;;18.16;100.00;100689.25;5053175;28;20497;-71
2023/09/12 00:38:45;;;;;;;6.13;3.10;;;;;;;18.12;100.00;100689.16;5053621;28;20533;-70
2023/09/12 00:41:12;;;;;;;7.70;2.90;;;;;;;18.08;100.00;100680.03;5056955;28;20434;-70
2023/09/12 00:43:39;;;;;;;6.20;3.60;;;;;;;18.06;100.00;100681.53;5057164;28;20434;-70
2023/09/12 00:46:05;;;;;;;6.87;3.17;;;;;;;18.03;100.00;100679.50;5057405;28;20537;-70
2023/09/12 00:48:32;;;;;;;7.67;3.20;;;;;;;18.03;100.00;100677.53;5057054;28;20521;-70
2023/09/12 00:51:01;;;;;;;5.40;2.70;;;;;;;18.01;100.00;100679.81;5057405;28;20469;-70
2023/09/12 00:53:28;;;;;;;7.33;3.63;;;;;;;17.98;100.00;100674.25;5056881;28;20588;-70
2023/09/12 00:55:58;;;;;;;6.77;3.03;;;;;;;17.98;100.00;100677.00;5056782;28;20461;-70
2023/09/12 00:58:25;;;;;;;6.73;2.87;;;;;;;17.98;100.00;100675.06;5056606;28;20454;-70
2023/09/12 01:00:52;;;;;;;5.50;2.80;;;;;;;17.96;100.00;100673.81;5056829;28;20437;-70
2023/09/12 01:03:19;;;;;;;12.43;2.83;;;;;;;17.96;100.00;100679.28;5056466;28;20438;-70
2023/09/12 01:05:47;;;;;;;6.87;3.47;;;;;;;17.97;100.00;100672.66;5056653;28;20496;-70
2023/09/12 01:08:15;;;;;;;7.10;3.33;;;;;;;17.92;100.00;100675.63;5056699;28;20470;-70
2023/09/12 01:10:45;;;;;;;6.53;2.97;;;;;;;17.89;100.00;100682.63;5056971;28;20521;-70
2023/09/12 01:13:12;;;;;;;5.37;2.93;;;;;;;17.87;100.00;100677.47;5056762;28;20509;-69
2023/09/12 01:15:39;;;;;;;5.67;2.93;;;;;;;17.86;100.00;100675.91;5056517;28;20920;-70
2023/09/12 01:18:06;;;;;;;6.40;3.67;;;;;;;17.84;100.00;100675.47;5056528;28;20440;-70
2023/09/12 01:20:36;;;;;;;4.70;2.93;;;;;;;17.83;100.00;100678.53;5057130;28;20525;-70
2023/09/12 01:23:32;;;;;;;6.10;2.97;;;;;;;17.80;100.00;100673.75;5056637;28;20465;-70
2023/09/12 01:26:24;;;;;;;6.10;3.07;;;;;;;17.78;100.00;100674.09;5056130;28;20473;-70
2023/09/12 01:28:54;;;;;;;5.67;3.57;;;;;;;17.78;100.00;100676.03;5056639;28;20423;-70
2023/09/12 01:31:22;;;;;;;5.03;2.87;;;;;;;17.78;100.00;100679.56;5056436;28;20513;-70
2023/09/12 01:33:49;;;;;;;5.47;2.83;;;;;;;17.75;100.00;100677.53;5056147;28;20486;-70
2023/09/12 01:36:16;;;;;;;7.30;3.33;;;;;;;17.75;100.00;100674.81;5055846;28;20466;-70
2023/09/12 01:38:43;;;;;;;5.20;3.10;;;;;;;17.73;100.00;100677.03;5056479;28;20519;-70
2023/09/12 01:41:10;;;;;;;5.00;2.63;;;;;;;17.72;100.00;100669.19;5056043;28;20517;-70
2023/09/12 01:43:39;;;;;;;6.93;3.30;;;;;;;17.71;100.00;100673.88;5056018;28;20438;-70
2023/09/12 01:46:07;;;;;;;7.50;3.83;;;;;;;17.69;100.00;100667.91;5055892;28;20465;-69
2023/09/12 01:48:36;;;;;;;6.07;3.40;;;;;;;17.65;100.00;100661.53;5055669;28;20950;-70
2023/09/12 01:51:05;;;;;;;7.63;3.40;;;;;;;17.62;100.00;100656.78;5055352;28;21017;-70
2023/09/12 01:53:34;;;;;;;5.10;2.90;;;;;;;17.62;100.00;100656.78;5055806;28;20514;-70
2023/09/12 01:56:01;;;;;;;6.83;3.63;;;;;;;17.61;100.00;100666.13;5056120;28;20544;-70
2023/09/12 01:58:27;;;;;;;6.27;3.80;;;;;;;17.62;100.00;100667.72;5055281;28;20827;-70
2023/09/12 02:00:54;;;;;;;6.17;3.13;;;;;;;17.62;100.00;100663.03;5055786;28;20521;-70
2023/09/12 02:03:22;;;;;;;7.80;3.47;;;;;;;17.59;100.00;100660.19;5056059;28;20442;-70
2023/09/12 02:05:49;;;;;;;5.37;3.17;;;;;;;17.57;100.00;100663.25;5055597;28;20496;-70
2023/09/12 02:08:16;;;;;;;5.70;3.40;;;;;;;17.57;100.00;100662.47;5055866;28;20478;-69
2023/09/12 02:10:42;;;;;;;6.47;3.33;;;;;;;17.56;100.00;100653.47;5055201;28;20525;-69
2023/09/12 02:13:09;;;;;;;4.60;2.63;;;;;;;17.55;100.00;100648.34;5055542;28;20483;-69
2023/09/12 02:15:35;;;;;;;5.90;3.20;;;;;;;17.51;100.00;100655.66;5055080;28;20812;-69
2023/09/12 02:18:03;;;;;;;5.43;3.83;;;;;;;17.54;100.00;100646.75;5055451;28;20477;-69
2023/09/12 02:20:32;;;;;;;6.47;3.73;;;;;;;17.53;100.00;100653.34;5055148;28;20443;-69
2023/09/12 02:22:58;;;;;;;6.37;3.50;;;;;;;17.49;100.00;100656.00;5055643;28;20438;-69
2023/09/12 02:25:25;;;;;;;7.27;3.57;;;;;;;17.47;100.00;100639.09;5055444;28;20521;-69
2023/09/12 02:27:51;;;;;;;7.20;3.60;;;;;;;17.42;100.00;100642.09;5055291;28;20474;-69
2023/09/12 02:30:18;;;;;;;6.87;4.00;;;;;;;17.42;100.00;100646.78;5055188;28;20944;-69
2023/09/12 02:32:45;;;;;;;5.07;2.73;;;;;;;17.38;100.00;100647.44;5054810;28;20487;-69
2023/09/12 02:35:11;;;;;;;4.67;2.40;;;;;;;17.39;100.00;100646.31;5054718;28;20568;-69
2023/09/12 02:37:39;;;;;;;5.20;3.10;;;;;;;17.38;100.00;100655.66;5055322;28;20454;-69
2023/09/12 02:40:08;;;;;;;7.10;3.37;;;;;;;17.31;100.00;100647.25;5055026;28;20448;-69
2023/09/12 02:42:35;;;;;;;7.53;3.90;;;;;;;17.32;100.00;100642.56;5055259;28;20503;-69
2023/09/12 02:45:01;;;;;;;5.83;2.90;;;;;;;17.29;100.00;100644.03;5054872;28;20517;-69
2023/09/12 02:47:28;;;;;;;5.20;3.20;;;;;;;17.25;100.00;100640.41;5054513;28;20541;-69
2023/09/12 02:49:55;;;;;;;8.40;3.53;;;;;;;17.30;100.00;100633.88;5054853;28;20470;-69
2023/09/12 02:52:21;;;;;;;8.23;3.80;;;;;;;17.30;100.00;100639.38;5055385;28;20435;-69
2023/09/12 02:54:49;;;;;;;4.77;2.87;;;;;;;17.31;100.00;100635.47;5054636;28;20572;-70
2023/09/12 02:57:16;;;;;;;6.90;3.87;;;;;;;17.29;100.00;100638.56;5054322;28;20504;-70
2023/09/12 02:59:43;;;;;;;4.67;2.70;;;;;;;17.27;100.00;100637.34;5054674;28;20935;-70
2023/09/12 03:02:09;;;;;;;6.57;3.20;;;;;;;17.26;100.00;100636.50;5053640;28;20469;-70
2023/09/12 03:04:36;;;;;;;4.50;3.10;;;;;;;17.21;100.00;100635.97;5054900;28;20442;-70
2023/09/12 03:07:03;;;;;;;5.03;3.07;;;;;;;17.21;100.00;100634.00;5054157;28;20817;-70
2023/09/12 03:09:30;;;;;;;6.27;2.97;;;;;;;17.17;100.00;100635.84;5054431;28;20529;-70
2023/09/12 03:11:57;;;;;;;7.07;3.40;;;;;;;17.17;100.00;100635.06;5054460;28;20521;-70
2023/09/12 03:14:24;;;;;;;8.17;3.83;;;;;;;17.12;100.00;100633.34;5054547;28;20488;-70
2023/09/12 03:16:51;;;;;;;8.50;3.67;;;;;;;17.12;100.00;100638.81;5053962;28;21038;-70
2023/09/12 03:19:17;;;;;;;5.90;3.50;;;;;;;17.09;100.00;100634.84;5054263;28;21008;-70
2023/09/12 03:21:44;;;;;;;9.30;3.20;;;;;;;17.11;100.00;100626.28;5054212;28;20438;-70
2023/09/12 03:24:10;;;;;;;5.13;2.63;;;;;;;17.10;100.00;100627.44;5054326;28;20440;-70
2023/09/12 03:26:37;;;;;;;5.40;3.20;;;;;;;17.12;100.00;100625.94;5054061;28;20458;-70
2023/09/12 03:29:05;;;;;;;7.53;3.50;;;;;;;17.12;100.00;100625.94;5053697;28;20529;-69
2023/09/12 03:31:32;;;;;;;6.93;3.40;;;;;;;17.06;100.00;100638.25;5053710;28;20901;-69
2023/09/12 03:33:59;;;;;;;6.13;2.97;;;;;;;17.07;100.00;100637.13;5054034;28;20482;-70
2023/09/12 03:36:25;;;;;;;7.00;3.83;;;;;;;17.04;100.00;100637.00;5054044;28;20462;-69
2023/09/12 03:38:52;;;;;;;7.90;3.17;;;;;;;17.02;100.00;100629.13;5053555;28;20521;-70
2023/09/12 03:41:19;;;;;;;5.80;3.10;;;;;;;17.03;100.00;100638.94;5053867;28;20457;-69
2023/09/12 03:43:46;;;;;;;7.50;3.40;;;;;;;17.03;100.00;100640.88;5054163;28;20457;-71
2023/09/12 03:46:14;;;;;;;5.00;3.23;;;;;;;17.04;100.00;100637.78;5053983;28;20466;-71
2023/09/12 03:48:41;;;;;;;6.37;3.00;;;;;;;17.02;100.00;100650.25;5054161;28;20438;-70
2023/09/12 03:51:07;;;;;;;7.10;3.33;;;;;;;16.97;100.00;100640.31;5053698;28;20438;-70
2023/09/12 03:53:34;;;;;;;5.83;3.17;;;;;;;16.98;100.00;100649.31;5053712;28;20525;-69
2023/09/12 03:56:01;;;;;;;4.40;2.30;;;;;;;16.97;100.00;100653.22;5053529;28;20568;-69
2023/09/12 03:58:27;;;;;;;5.30;3.20;;;;;;;16.94;100.00;100648.41;5053641;28;20450;-70
2023/09/12 04:00:54;;;;;;;4.37;2.50;;;;;;;16.95;100.00;100650.00;5053277;28;20922;-70
2023/09/12 04:03:22;;;;;;;7.40;3.57;;;;;;;16.93;100.00;100646.81;5053266;28;20817;-70
2023/09/12 04:05:50;;;;;;;6.80;3.93;;;;;;;16.94;100.00;100643.72;5053387;28;20461;-70
2023/09/12 04:08:17;;;;;;;10.20;3.80;;;;;;;16.89;100.00;100650.22;5053586;28;20525;-70
2023/09/12 04:10:44;;;;;;;6.53;3.33;;;;;;;16.85;100.00;100649.31;5053786;28;20533;-70
2023/09/12 04:13:10;;;;;;;7.97;3.90;;;;;;;16.82;100.00;100652.75;5053385;28;20481;-70
2023/09/12 04:15:37;;;;;;;7.27;3.67;;;;;;;16.82;100.00;100644.56;5053731;28;20589;-70
2023/09/12 04:18:04;;;;;;;5.93;3.30;;;;;;;16.83;100.00;100643.41;5053859;28;20470;-70
2023/09/12 04:20:32;;;;;;;6.53;3.03;;;;;;;16.80;100.00;100638.59;5053842;28;20525;-70
2023/09/12 04:23:02;;;;;;;7.27;3.27;;;;;;;16.79;100.00;100647.97;5053195;28;20444;-70
2023/09/12 04:25:29;;;;;;;6.83;2.97;;;;;;;16.77;100.00;100649.44;5053351;28;20442;-70
2023/09/12 04:27:55;;;;;;;6.50;3.80;;;;;;;16.77;100.00;100654.91;5053306;28;20506;-70
2023/09/12 04:30:22;;;;;;;4.80;2.97;;;;;;;16.80;100.00;100655.03;5053247;28;20439;-70
2023/09/12 04:32:48;;;;;;;7.80;4.40;;;;;;;16.75;100.00;100641.56;5053291;28;20446;-70
2023/09/12 04:35:15;;;;;;;5.80;3.20;;;;;;;16.79;100.00;100645.22;5053179;28;20575;-70
2023/09/12 04:37:43;;;;;;;7.57;3.30;;;;;;;16.78;100.00;100649.09;5053110;28;20490;-74
2023/09/12 04:40:11;;;;;;;5.97;3.13;;;;;;;16.77;100.00;100650.22;5053194;28;20474;-72
2023/09/12 04:42:37;;;;;;;7.23;3.47;;;;;;;16.79;100.00;100653.44;5053131;28;20496;-71
2023/09/12 04:45:05;;;;;;;6.17;3.60;;;;;;;16.82;100.00;100657.41;5053165;28;20441;-71
2023/09/12 04:47:31;;;;;;;5.37;3.10;;;;;;;16.81;100.00;100655.81;5053063;28;20558;-73
2023/09/12 04:49:58;;;;;;;6.83;3.37;;;;;;;16.78;100.00;100654.59;5052865;28;20989;-71
2023/09/12 04:52:24;;;;;;;5.83;3.50;;;;;;;16.79;100.00;100658.09;5053103;28;20448;-70
2023/09/12 04:54:52;;;;;;;7.23;4.07;;;;;;;16.79;100.00;100647.97;5053081;28;20999;-71
2023/09/12 04:57:19;;;;;;;6.40;2.93;;;;;;;16.84;100.00;100655.16;5052715;28;20478;-71
2023/09/12 04:59:46;;;;;;;8.23;3.97;;;;;;;16.87;100.00;100655.25;5052648;28;20474;-69
2023/09/12 05:02:12;;;;;;;5.50;3.47;;;;;;;16.85;100.00;100668.47;5053342;28;20434;-69
2023/09/12 05:04:39;;;;;;;5.70;3.20;;;;;;;16.85;100.00;100665.72;5053008;28;20431;-69
2023/09/12 05:07:05;;;;;;;5.63;2.73;;;;;;;16.89;100.00;100669.38;5052720;28;21022;-69
2023/09/12 05:09:32;;;;;;;5.30;3.00;;;;;;;16.92;100.00;100661.66;5053502;28;20840;-69
2023/09/12 05:12:00;;;;;;;6.20;2.77;;;;;;;16.98;100.00;100658.34;5052759;28;20478;-71
2023/09/12 05:14:26;;;;;;;5.67;3.03;;;;;;;17.01;100.00;100659.59;5052807;28;20438;-71
2023/09/12 05:16:54;;;;;;;7.77;3.77;;;;;;;16.99;100.00;100665.41;5052868;28;20549;-69
2023/09/12 05:19:20;;;;;;;5.53;2.60;;;;;;;17.04;100.00;100664.38;5052889;28;20516;-69
2023/09/12 05:21:47;;;;;;;9.43;3.10;;;;;;;17.09;100.00;100664.97;5052333;28;20947;-70
2023/09/12 05:24:14;;;;;;;6.00;2.97;;;;;;;17.15;100.00;100665.50;5053147;28;20453;-70
2023/09/12 05:26:40;;;;;;;7.77;4.27;;;;;;;17.17;100.00;100665.97;5055628;28;20472;-70
2023/09/12 05:29:08;;;;;;;6.30;3.97;;;;;;;17.25;100.00;100673.25;5056473;28;20442;-70
2023/09/12 05:31:35;;;;;;;7.10;2.80;;;;;;;17.27;100.00;100667.44;5056381;28;20441;-70
2023/09/12 05:34:02;;;;;;;5.40;2.80;;;;;;;17.32;100.00;100665.28;5056288;28;20492;-70
2023/09/12 05:36:28;;;;;;;7.93;4.20;;;;;;;17.40;100.00;100678.03;5056414;28;20589;-70
2023/09/12 05:38:55;;;;;;;8.10;4.30;;;;;;;17.47;100.00;100671.19;5056199;28;20885;-70
2023/09/12 05:41:21;;;;;;;6.23;2.83;;;;;;;17.52;100.00;100674.47;5056737;28;20446;-70
2023/09/12 05:43:48;;;;;;;5.50;2.97;;;;;;;17.58;100.00;100688.75;5056484;28;20464;-70
2023/09/12 05:46:16;;;;;;;7.00;2.30;;;;;;;17.54;100.00;100707.00;5055718;28;20458;-70
2023/09/12 05:48:43;;;;;;;4.90;2.60;;;;;;;17.53;100.00;100703.47;5055955;28;20948;-70
2023/09/12 05:51:09;;;;;;;8.07;3.63;;;;;;;17.59;100.00;100690.31;5056094;28;20461;-70
2023/09/12 05:53:36;;;;;;;6.43;3.37;;;;;;;17.68;100.00;100690.19;5056104;28;20440;-70
2023/09/12 05:56:02;;;;;;;7.23;3.97;;;;;;;17.71;100.00;100698.53;5055775;28;21007;-70
2023/09/12 05:58:29;;;;;;;5.50;2.93;;;;;;;17.79;100.00;100689.38;5069762;22;21009;-68
2023/09/12 06:00:56;;;;;;;6.70;4.07;;;;;;;17.85;100.00;100693.50;5055729;28;20520;-68
2023/09/12 06:03:24;;;;;;;6.13;3.63;;;;;;;17.91;100.00;100691.28;5056012;28;20442;-68
2023/09/12 06:05:50;;;;;;;5.17;3.30;;;;;;;17.96;100.00;100687.50;5055944;28;20512;-68
2023/09/12 06:08:17;;;;;;;8.60;3.70;;;;;;;18.02;100.00;100697.88;5055591;28;20438;-68
2023/09/12 06:10:44;;;;;;;6.70;3.40;;;;;;;18.08;100.00;100703.91;5055591;28;20438;-69
2023/09/12 06:13:10;;;;;;;7.40;3.47;;;;;;;18.14;100.00;100703.31;5055189;28;20826;-69
2023/09/12 06:15:37;;;;;;;6.13;3.33;;;;;;;18.21;100.00;100702.72;5055729;28;20555;-69
2023/09/12 06:18:04;;;;;;;6.73;3.60;;;;;;;18.26;100.00;100699.72;5055902;28;20441;-69
2023/09/12 06:20:32;;;;;;;5.40;2.70;;;;;;;18.31;100.00;100693.97;5056290;28;20442;-69
2023/09/12 06:22:59;;;;;;;8.03;3.63;;;;;;;18.36;100.00;100696.47;5057753;28;20446;-70
2023/09/12 06:25:26;;;;;;;6.47;4.30;;;;;;;18.43;100.00;100712.31;5059953;28;20806;-69
2023/09/12 06:27:52;;;;;;;7.87;3.73;;;;;;;18.51;100.00;100713.31;5064686;28;20446;-69
2023/09/12 06:30:19;;;;;;;7.77;3.73;;;;;;;18.56;100.00;100708.38;5065204;28;20462;-70
2023/09/12 06:32:46;;;;;;;5.80;3.70;;;;;;;18.61;100.00;100718.28;5065148;28;20470;-70
2023/09/12 06:35:12;;;;;;;6.30;3.70;;;;;;;18.64;100.00;100720.34;5064459;28;20485;-70
2023/09/12 06:37:40;;;;;;;7.63;3.07;;;;;;;18.71;100.00;100734.25;5069919;28;20489;-71
2023/09/12 06:40:08;;;;;;;6.40;3.17;;;;;;;18.88;100.00;100717.44;5064932;28;20438;-71
2023/09/12 06:42:35;;;;;;;5.27;3.10;;;;;;;19.01;100.00;100722.84;5065705;28;20446;-70
2023/09/12 06:45:02;;;;;;;6.33;3.37;;;;;;;19.12;100.00;100732.97;5065084;28;20498;-70
2023/09/12 06:47:28;;;;;;;7.57;3.17;;;;;;;19.29;100.00;100731.75;5065332;28;20469;-70
2023/09/12 06:49:55;;;;;;;6.10;3.30;;;;;;;19.46;100.00;100724.31;5064920;28;20442;-70
2023/09/12 06:52:21;;;;;;;6.17;3.23;;;;;;;19.67;96.74;100735.03;5065648;28;20438;-71
2023/09/12 06:54:49;;;;;;;5.83;3.33;;;;;;;19.86;94.51;100735.03;5065595;28;20443;-71
2023/09/12 06:57:16;;;;;;;4.53;2.50;;;;;;;20.05;91.83;100732.28;5066783;28;20547;-70
2023/09/12 06:59:43;;;;;;;8.03;3.60;;;;;;;20.15;93.14;100725.44;5066261;28;20430;-70
2023/09/12 07:02:12;;;;;;;5.93;3.33;;;;;;;20.22;93.05;100731.06;5065020;28;20443;-70
2023/09/12 07:04:39;;;;;;;6.33;2.90;;;;;;;20.28;92.62;100735.13;5062002;28;20537;-70
2023/09/12 07:07:05;;;;;;;5.53;2.70;;;;;;;20.38;92.13;100731.78;5062820;28;20481;-70
2023/09/12 07:09:33;;;;;;;5.97;2.77;;;;;;;20.55;88.10;100738.03;5055940;28;20525;-71
2023/09/12 07:12:01;;;;;;;4.57;2.60;;;;;;;20.72;87.06;100745.81;5054188;28;20446;-69
2023/09/12 07:14:29;;;;;;;6.83;2.83;;;;;;;20.83;87.30;100738.53;5054319;28;20434;-70
2023/09/12 07:16:56;;;;;;;5.90;2.87;;;;;;;20.89;87.45;100728.81;5054111;28;20493;-70
2023/09/12 07:19:22;;;;;;;6.70;2.27;;;;;;;21.05;85.41;100738.88;5054455;28;20462;-70
2023/09/12 07:21:49;;;;;;;5.10;2.90;;;;;;;21.17;84.92;100739.50;5053887;28;20860;-69
2023/09/12 07:24:15;;;;;;;8.00;2.30;;;;;;;21.27;85.44;100745.53;5054208;28;20438;-70
2023/09/12 07:26:42;;;;;;;4.60;2.67;;;;;;;21.37;83.60;100745.72;5053734;28;20458;-71
2023/09/12 07:29:10;;;;;;;5.20;2.93;;;;;;;21.46;82.57;100747.44;5054394;28;20521;-71
2023/09/12 07:31:37;;;;;;;5.03;2.80;;;;;;;21.64;81.71;100738.25;5053967;28;20525;-72
2023/09/12 07:34:03;;;;;;;5.53;2.90;;;;;;;21.83;80.03;100748.38;5053962;28;20530;-70
2023/09/12 07:36:30;;;;;;;5.07;2.50;;;;;;;21.95;79.59;100732.75;5053729;28;20569;-68
2023/09/12 07:38:56;;;;;;;4.33;2.53;;;;;;;22.08;79.54;100729.38;5054170;28;20471;-69
2023/09/12 07:41:23;;;;;;;4.50;2.27;;;;;;;22.21;78.51;100724.41;5053840;28;20449;-68
2023/09/12 07:43:49;;;;;;;3.90;2.40;;;;;;;22.26;77.92;100731.56;5054311;28;20534;-70
2023/09/12 07:46:17;;;;;;;3.67;1.93;;;;;;;22.38;78.20;100743.16;5053848;28;20493;-70
2023/09/12 07:48:44;;;;;;;4.77;2.40;;;;;;;22.47;78.50;100747.59;5053906;28;20462;-70
2023/09/12 07:51:15;;;;;;;6.00;3.20;;;;;;;22.57;78.33;100736.66;5053697;28;20444;-71
2023/09/12 07:53:41;;;;;;;5.57;3.23;;;;;;;22.62;78.80;100735.50;5053668;28;20488;-70
2023/09/12 07:56:09;;;;;;;4.20;2.70;;;;;;;22.69;78.96;100732.03;5053376;28;20997;-69
2023/09/12 07:58:36;;;;;;;5.17;2.57;;;;;;;22.76;77.84;100732.91;5053773;28;20454;-71
2023/09/12 08:01:06;;;;;;;5.40;2.60;;;;;;;22.87;77.12;100731.00;5054834;28;20438;-70
2023/09/12 08:03:34;;;;;;;5.27;2.90;;;;;;;22.99;76.60;100735.50;5053841;28;20445;-71
2023/09/12 08:06:00;;;;;;;4.40;2.07;;;;;;;23.01;77.80;100729.56;5053688;28;20545;-69
2023/09/12 08:08:27;;;;;;;7.83;2.90;;;;;;;23.16;75.90;100731.28;5053926;28;20521;-69
2023/09/12 08:10:54;;;;;;;4.10;2.40;;;;;;;23.28;75.29;100735.72;5054163;28;20469;-70
2023/09/12 08:13:20;;;;;;;6.57;4.00;;;;;;;23.35;75.18;100733.00;5053298;28;20877;-70
2023/09/12 08:15:47;;;;;;;5.63;2.87;;;;;;;23.32;76.67;100734.56;5054135;28;20933;-69
2023/09/12 08:18:14;;;;;;;5.90;2.90;;;;;;;23.39;76.16;100728.28;5053632;28;20529;-69
2023/09/12 08:20:41;;;;;;;5.90;2.53;;;;;;;23.53;74.78;100720.09;5053571;28;20524;-69
2023/09/12 08:23:08;;;;;;;5.33;2.90;;;;;;;23.73;71.89;100726.16;5053564;28;20530;-69
2023/09/12 08:25:35;;;;;;;5.37;2.60;;;;;;;23.76;73.25;100736.44;5053696;28;20435;-70
2023/09/12 08:28:01;;;;;;;5.17;2.53;;;;;;;23.94;72.74;100742.06;5053332;28;20438;-69
2023/09/12 08:30:29;;;;;;;10.20;3.40;;;;;;;24.15;72.17;100744.91;5053707;28;20442;-68
2023/09/12 08:32:55;;;;;;;6.60;2.77;;;;;;;24.24;71.90;100738.22;5052931;28;20438;-69
2023/09/12 08:35:22;;;;;;;5.67;2.83;;;;;;;24.39;70.64;100743.47;5053138;28;20866;-69
2023/09/12 08:37:50;;;;;;;5.67;2.33;;;;;;;24.51;70.76;100745.06;5053244;28;20473;-71
2023/09/12 08:40:17;;;;;;;4.17;2.20;;;;;;;24.59;70.68;100749.44;5053627;28;20485;-71
2023/09/12 08:42:45;;;;;;;4.90;2.50;;;;;;;24.66;70.96;100746.69;5053195;28;20526;-72
2023/09/12 08:45:14;;;;;;;5.63;2.83;;;;;;;24.77;70.30;100752.22;5052955;28;20446;-71
2023/09/12 08:47:42;;;;;;;4.17;1.93;;;;;;;24.87;70.55;100773.63;5053376;28;20464;-71
2023/09/12 08:50:13;;;;;;;4.57;2.37;;;;;;;25.06;68.78;100777.22;5052806;28;20960;-71
2023/09/12 08:52:40;;;;;;;3.97;2.23;;;;;;;25.29;68.58;100776.84;5053434;28;20419;-71
2023/09/12 08:55:09;;;;;;;6.20;2.53;;;;;;;25.46;68.13;100780.81;5053239;28;20442;-71
2023/09/12 08:57:38;;;;;;;4.97;3.10;;;;;;;25.59;67.95;100787.53;5052753;28;20510;-71
2023/09/12 09:00:08;;;;;;;5.40;3.43;;;;;;;25.62;68.27;100789.47;5052730;28;20525;-71
2023/09/12 09:02:38;;;;;;;6.20;3.20;;;;;;;25.71;68.44;100795.41;5056513;28;20438;-71
2023/09/12 09:05:06;;;;;;;4.67;3.00;;;;;;;25.72;68.41;100793.41;5055905;28;20445;-71
2023/09/12 09:07:35;;;;;;;4.23;2.50;;;;;;;25.65;70.35;100805.34;5056587;28;20490;-70
2023/09/12 09:10:04;;;;;;;5.40;2.90;;;;;;;25.74;69.54;100807.69;5056447;28;20438;-71
2023/09/12 09:12:32;;;;;;;4.33;2.63;;;;;;;25.77;69.43;100804.97;5056749;28;20533;-71
2023/09/12 09:14:59;;;;;;;5.00;3.20;;;;;;;25.83;69.11;100806.13;5056595;28;20452;-70
2023/09/12 09:17:27;;;;;;;5.50;3.13;;;;;;;25.84;69.72;100812.47;5056387;28;20978;-69
2023/09/12 09:19:54;;;;;;;6.33;3.17;;;;;;;25.89;69.76;100812.84;5056563;28;20440;-68
2023/09/12 09:22:20;;;;;;;9.00;4.40;;;;;;;25.82;70.11;100815.66;5056547;28;20446;-69
2023/09/12 09:24:47;;;;;;;4.60;2.70;;;;;;;25.83;69.00;100813.66;5056535;28;20799;-69
2023/09/12 09:27:35;;;;;;;5.87;3.07;;;;;;;25.83;68.79;100816.44;5056061;28;20490;-69
2023/09/12 09:30:03;;;;;;;6.37;3.30;;;;;;;25.83;68.31;100811.66;5056069;28;20775;-70
2023/09/12 09:32:30;;;;;;;5.40;2.93;;;;;;;25.79;69.12;100815.66;5056257;28;20449;-69
2023/09/12 09:34:56;;;;;;;4.90;3.13;;;;;;;25.75;70.31;100804.50;5055976;28;20446;-69
2023/09/12 09:37:24;;;;;;;6.40;3.57;;;;;;;25.74;70.55;100808.50;5056338;28;20508;-69
2023/09/12 09:39:52;;;;;;;6.00;3.63;;;;;;;25.85;68.95;100809.31;5056500;28;20435;-69
2023/09/12 09:42:18;;;;;;;6.63;3.77;;;;;;;25.91;68.56;100796.59;5056428;28;20449;-70
2023/09/12 09:44:46;;;;;;;5.57;3.40;;;;;;;25.98;67.58;100800.53;5055801;28;20453;-70
2023/09/12 09:47:13;;;;;;;10.93;3.90;;;;;;;26.12;68.21;100798.50;5056361;28;20550;-70
2023/09/12 09:49:40;;;;;;;5.30;3.83;;;;;;;26.12;71.09;100794.94;5056301;28;20448;-70
2023/09/12 09:52:07;;;;;;;5.00;3.40;;;;;;;26.16;68.91;100795.69;5055953;28;20449;-70
2023/09/12 09:54:33;;;;;;;4.67;3.00;;;;;;;26.26;66.88;100794.88;5056007;28;20525;-70
2023/09/12 09:57:00;;;;;;;5.87;3.40;;;;;;;26.33;66.67;100789.28;5055943;28;20862;-69
2023/09/12 09:59:29;;;;;;;5.47;2.87;;;;;;;26.38;64.69;100788.84;5055966;28;20517;-69
2023/09/12 10:01:58;;;;;;;4.40;2.50;;;;;;;26.37;63.92;100787.28;5055864;28;20934;-69
2023/09/12 10:04:28;;;;;;;4.03;2.47;;;;;;;26.46;64.03;100781.31;5055759;28;20434;-69
2023/09/12 10:06:58;;;;;;;4.80;2.50;;;;;;;26.58;64.26;100780.06;5055734;28;20537;-69
2023/09/12 10:09:27;;;;;;;4.37;3.00;;;;;;;26.68;63.43;100773.66;5055605;28;20443;-69
2023/09/12 10:11:56;;;;;;;5.30;3.13;;;;;;;26.81;63.82;100763.63;5055120;28;20926;-69
2023/09/12 10:14:24;;;;;;;4.30;2.60;;;;;;;26.95;66.14;100762.72;5055872;28;20444;-69
2023/09/12 10:16:53;;;;;;;5.13;2.67;;;;;;;27.06;64.23;100752.31;5055308;28;20508;-69
2023/09/12 10:19:24;;;;;;;4.87;2.40;;;;;;;27.01;63.47;100755.56;5055331;28;20946;-69
2023/09/12 10:21:55;;;;;;;4.53;2.60;;;;;;;27.10;62.82;100763.47;5055150;28;20463;-69
2023/09/12 10:24:23;;;;;;;4.70;2.60;;;;;;;27.06;62.79;100759.88;5055724;28;20422;-69
2023/09/12 10:26:52;;;;;;;4.73;2.87;;;;;;;27.15;62.61;100752.69;5055057;28;21037;-69
2023/09/12 10:29:19;;;;;;;4.10;2.20;;;;;;;27.20;61.04;100759.78;5055763;28;20497;-69
2023/09/12 10:31:46;;;;;;;14.50;3.20;;;;;;;27.29;62.34;100771.22;5055597;28;20446;-69
2023/09/12 10:34:15;;;;;;;5.53;3.30;;;;;;;27.43;60.60;100770.31;5054869;28;20993;-69
2023/09/12 10:36:44;;;;;;;4.60;2.60;;;;;;;27.39;60.17;100775.91;5055037;28;20576;-70
2023/09/12 10:39:13;;;;;;;4.37;2.23;;;;;;;27.44;59.90;100762.75;5054759;28;20438;-70
2023/09/12 10:41:41;;;;;;;4.50;2.60;;;;;;;27.48;57.61;100769.84;5055354;28;20544;-70
2023/09/12 10:44:11;;;;;;;3.30;1.90;;;;;;;27.47;57.64;100778.63;5054743;28;20435;-70
2023/09/12 10:46:39;;;;;;;5.27;2.83;;;;;;;27.49;58.30;100767.84;5055257;28;20554;-70
2023/09/12 10:49:08;;;;;;;3.70;2.07;;;;;;;27.69;58.56;100765.28;5054796;28;20477;-70
2023/09/12 10:51:39;;;;;;;5.83;3.17;;;;;;;27.78;56.46;100768.41;5055111;28;20434;-70
2023/09/12 10:54:08;;;;;;;5.20;2.50;;;;;;;27.76;57.80;100777.16;5054803;28;20469;-69
2023/09/12 10:56:35;;;;;;;4.23;2.40;;;;;;;27.83;57.92;100768.72;5054809;28;20496;-69
2023/09/12 10:59:15;;;;;;;4.90;2.97;;;;;;;27.96;57.05;100770.97;5054601;28;20445;-69
2023/09/12 11:01:45;;;;;;;4.90;2.37;;;;;;;28.08;57.13;100762.09;5054848;28;20465;-69
2023/09/12 11:04:34;;;;;;;4.03;2.70;;;;;;;28.17;58.72;100757.56;5054258;28;20458;-69
2023/09/12 11:07:01;;;;;;;5.13;2.40;;;;;;;28.25;57.42;100763.06;5054145;28;20540;-69
2023/09/12 11:09:30;;;;;;;4.90;2.77;;;;;;;28.47;56.60;100769.16;5054452;28;20438;-71
2023/09/12 11:11:59;;;;;;;4.13;2.17;;;;;;;28.54;55.27;100771.84;5054602;28;20442;-75
2023/09/12 11:14:26;;;;;;;4.43;2.70;;;;;;;28.73;55.43;100775.94;5054328;28;20529;-69
2023/09/12 11:17:23;;;;;;;4.53;2.67;;;;;;;29.08;53.78;100769.84;5054213;28;20539;-69
2023/09/12 11:19:52;;;;;;;4.50;2.50;;;;;;;29.06;54.50;100768.69;5053249;28;20454;-69
2023/09/12 11:22:26;;;;;;;3.73;2.03;;;;;;;29.48;54.52;100767.16;5054455;28;20445;-69